sensor_id;sensor_type;location;lat;lon;timestamp;temperature;humidity
47961;DHT22;33721;48.852;9.936;2022-09-24T00:00:55;10.30;99.90
47961;DHT22;33721;48.852;9.936;2022-09-24T00:03:23;10.30;99.90
47961;DHT22;33721;48.852;9.936;2022-09-24T00:05:50;10.20;99.90
47961;DHT22;33721;48.852;9.936;2022-09-24T00:08:17;10.20;99.90
47961;DHT22;33721;48.852;9.936;2022-09-24T00:10:45;10.20;99.90
47961;DHT22;33721;48.852;9.936;2022-09-24T00:13:13;10.30;99.90
47961;DHT22;33721;48.852;9.936;2022-09-24T00:15:43;10.30;99.90
47961;DHT22;33721;48.852;9.936;2022-09-24T00:18:09;10.30;99.90
47961;DHT22;33721;48.852;9.936;2022-09-24T00:20:37;10.20;99.90
47961;DHT22;33721;48.852;9.936;2022-09-24T00:23:03;10.20;99.90
47961;DHT22;33721;48.852;9.936;2022-09-24T00:25:29;10.10;99.90
47961;DHT22;33721;48.852;9.936;2022-09-24T00:28:14;10.10;99.90
47961;DHT22;33721;48.852;9.936;2022-09-24T00:30:41;10.20;99.90
47961;DHT22;33721;48.852;9.936;2022-09-24T00:33:08;10.10;99.90
47961;DHT22;33721;48.852;9.936;2022-09-24T00:35:35;10.10;99.90
47961;DHT22;33721;48.852;9.936;2022-09-24T00:38:02;10.10;99.90
47961;DHT22;33721;48.852;9.936;2022-09-24T00:40:33;10.20;99.90
47961;DHT22;33721;48.852;9.936;2022-09-24T00:42:59;10.10;99.90
47961;DHT22;33721;48.852;9.936;2022-09-24T00:45:26;10.10;99.90
47961;DHT22;33721;48.852;9.936;2022-09-24T00:47:52;10.20;99.90
47961;DHT22;33721;48.852;9.936;2022-09-24T00:50:25;10.20;99.90
47961;DHT22;33721;48.852;9.936;2022-09-24T00:53:04;10.10;99.90
47961;DHT22;33721;48.852;9.936;2022-09-24T00:55:30;10.10;99.90
47961;DHT22;33721;48.852;9.936;2022-09-24T00:58:03;10.10;99.90
47961;DHT22;33721;48.852;9.936;2022-09-24T01:00:30;10.00;99.90
47961;DHT22;33721;48.852;9.936;2022-09-24T01:03:07;10.10;99.90
47961;DHT22;33721;48.852;9.936;2022-09-24T01:05:35;10.10;99.90
47961;DHT22;33721;48.852;9.936;2022-09-24T01:08:01;10.00;99.90
47961;DHT22;33721;48.852;9.936;2022-09-24T01:16:14;10.10;99.90
47961;DHT22;33721;48.852;9.936;2022-09-24T01:18:57;10.10;99.90
47961;DHT22;33721;48.852;9.936;2022-09-24T01:21:44;10.10;99.90
47961;DHT22;33721;48.852;9.936;2022-09-24T01:24:34;10.00;99.90
47961;DHT22;33721;48.852;9.936;2022-09-24T01:27:15;10.00;99.90
47961;DHT22;33721;48.852;9.936;2022-09-24T01:32:34;9.90;99.90
47961;DHT22;33721;48.852;9.936;2022-09-24T01:35:50;9.90;99.90
47961;DHT22;33721;48.852;9.936;2022-09-24T01:38:10;9.80;99.90
47961;DHT22;33721;48.852;9.936;2022-09-24T01:40:38;9.80;99.90
47961;DHT22;33721;48.852;9.936;2022-09-24T01:43:05;9.80;99.90
47961;DHT22;33721;48.852;9.936;2022-09-24T01:45:32;9.80;99.90
47961;DHT22;33721;48.852;9.936;2022-09-24T01:48:00;9.80;99.90
47961;DHT22;33721;48.852;9.936;2022-09-24T01:50:30;9.90;99.90
47961;DHT22;33721;48.852;9.936;2022-09-24T01:53:14;9.90;99.90
47961;DHT22;33721;48.852;9.936;2022-09-24T01:55:45;9.90;99.90
47961;DHT22;33721;48.852;9.936;2022-09-24T01:58:20;9.90;99.90
47961;DHT22;33721;48.852;9.936;2022-09-24T02:00:50;9.80;99.90
47961;DHT22;33721;48.852;9.936;2022-09-24T02:03:22;9.80;99.90
47961;DHT22;33721;48.852;9.936;2022-09-24T02:06:03;9.80;99.90
47961;DHT22;33721;48.852;9.936;2022-09-24T02:08:38;9.80;99.90
47961;DHT22;33721;48.852;9.936;2022-09-24T02:11:13;9.80;99.90
47961;DHT22;33721;48.852;9.936;2022-09-24T02:16:12;9.60;99.90
47961;DHT22;33721;48.852;9.936;2022-09-24T02:18:43;9.60;99.90
47961;DHT22;33721;48.852;9.936;2022-09-24T02:21:14;9.50;99.90
47961;DHT22;33721;48.852;9.936;2022-09-24T02:24:25;9.50;99.90
47961;DHT22;33721;48.852;9.936;2022-09-24T02:26:30;9.50;99.90
47961;DHT22;33721;48.852;9.936;2022-09-24T02:28:56;9.40;99.90
47961;DHT22;33721;48.852;9.936;2022-09-24T02:31:29;9.40;99.90
47961;DHT22;33721;48.852;9.936;2022-09-24T02:33:56;9.40;99.90
47961;DHT22;33721;48.852;9.936;2022-09-24T02:36:42;9.40;99.90
47961;DHT22;33721;48.852;9.936;2022-09-24T02:39:08;9.50;99.90
47961;DHT22;33721;48.852;9.936;2022-09-24T02:41:33;9.40;99.90
47961;DHT22;33721;48.852;9.936;2022-09-24T02:44:00;9.30;99.90
47961;DHT22;33721;48.852;9.936;2022-09-24T02:46:26;9.30;99.90
47961;DHT22;33721;48.852;9.936;2022-09-24T02:48:52;9.30;99.90
47961;DHT22;33721;48.852;9.936;2022-09-24T02:51:17;9.30;99.90
47961;DHT22;33721;48.852;9.936;2022-09-24T02:53:43;9.30;99.90
47961;DHT22;33721;48.852;9.936;2022-09-24T02:56:08;9.30;99.90
47961;DHT22;33721;48.852;9.936;2022-09-24T02:58:35;9.30;99.90
47961;DHT22;33721;48.852;9.936;2022-09-24T03:01:03;9.30;99.90
47961;DHT22;33721;48.852;9.936;2022-09-24T03:03:29;9.30;99.90
47961;DHT22;33721;48.852;9.936;2022-09-24T03:05:55;9.30;99.90
47961;DHT22;33721;48.852;9.936;2022-09-24T03:08:22;9.30;99.90
47961;DHT22;33721;48.852;9.936;2022-09-24T03:10:49;9.30;99.90
47961;DHT22;33721;48.852;9.936;2022-09-24T03:13:18;9.30;99.90
47961;DHT22;33721;48.852;9.936;2022-09-24T03:15:45;9.30;99.90
47961;DHT22;33721;48.852;9.936;2022-09-24T03:18:11;9.30;99.90
47961;DHT22;33721;48.852;9.936;2022-09-24T03:20:36;9.20;99.90
47961;DHT22;33721;48.852;9.936;2022-09-24T03:23:02;9.20;99.90
47961;DHT22;33721;48.852;9.936;2022-09-24T03:25:28;9.00;99.90
47961;DHT22;33721;48.852;9.936;2022-09-24T03:27:54;9.00;99.90
47961;DHT22;33721;48.852;9.936;2022-09-24T03:30:20;9.00;99.90
47961;DHT22;33721;48.852;9.936;2022-09-24T03:33:04;9.00;99.90
47961;DHT22;33721;48.852;9.936;2022-09-24T03:35:29;9.00;99.90
47961;DHT22;33721;48.852;9.936;2022-09-24T03:37:55;9.10;99.90
47961;DHT22;33721;48.852;9.936;2022-09-24T03:40:21;9.10;99.90
47961;DHT22;33721;48.852;9.936;2022-09-24T03:42:46;9.10;99.90
47961;DHT22;33721;48.852;9.936;2022-09-24T03:45:12;9.20;99.90
47961;DHT22;33721;48.852;9.936;2022-09-24T03:47:38;9.20;99.90
47961;DHT22;33721;48.852;9.936;2022-09-24T03:50:05;9.20;99.90
47961;DHT22;33721;48.852;9.936;2022-09-24T03:52:30;9.20;99.90
47961;DHT22;33721;48.852;9.936;2022-09-24T03:54:57;9.30;99.90
47961;DHT22;33721;48.852;9.936;2022-09-24T03:57:22;9.30;99.90
47961;DHT22;33721;48.852;9.936;2022-09-24T03:59:48;9.30;99.90
47961;DHT22;33721;48.852;9.936;2022-09-24T04:02:14;9.30;99.90
47961;DHT22;33721;48.852;9.936;2022-09-24T04:04:39;9.20;99.90
47961;DHT22;33721;48.852;9.936;2022-09-24T04:07:05;9.10;99.90
47961;DHT22;33721;48.852;9.936;2022-09-24T04:09:30;9.20;99.90
47961;DHT22;33721;48.852;9.936;2022-09-24T04:11:56;9.10;99.90
47961;DHT22;33721;48.852;9.936;2022-09-24T04:14:23;9.10;99.90
47961;DHT22;33721;48.852;9.936;2022-09-24T04:16:49;9.10;99.90
47961;DHT22;33721;48.852;9.936;2022-09-24T04:19:15;9.00;99.90
47961;DHT22;33721;48.852;9.936;2022-09-24T04:21:41;9.10;99.90
47961;DHT22;33721;48.852;9.936;2022-09-24T04:24:08;9.20;99.90
47961;DHT22;33721;48.852;9.936;2022-09-24T04:26:33;9.20;99.90
47961;DHT22;33721;48.852;9.936;2022-09-24T04:28:59;9.20;99.90
47961;DHT22;33721;48.852;9.936;2022-09-24T04:31:25;9.20;99.90
47961;DHT22;33721;48.852;9.936;2022-09-24T04:33:52;9.10;99.90
47961;DHT22;33721;48.852;9.936;2022-09-24T04:36:18;9.10;99.90
47961;DHT22;33721;48.852;9.936;2022-09-24T04:38:43;9.10;99.90
47961;DHT22;33721;48.852;9.936;2022-09-24T04:41:11;9.10;99.90
47961;DHT22;33721;48.852;9.936;2022-09-24T04:43:37;9.20;99.90
47961;DHT22;33721;48.852;9.936;2022-09-24T04:46:03;9.10;99.90
47961;DHT22;33721;48.852;9.936;2022-09-24T04:48:29;9.10;99.90
47961;DHT22;33721;48.852;9.936;2022-09-24T04:50:55;9.10;99.90
47961;DHT22;33721;48.852;9.936;2022-09-24T04:53:21;9.10;99.90
47961;DHT22;33721;48.852;9.936;2022-09-24T04:55:47;9.10;99.90
47961;DHT22;33721;48.852;9.936;2022-09-24T04:58:13;9.10;99.90
47961;DHT22;33721;48.852;9.936;2022-09-24T05:00:39;9.10;99.90
47961;DHT22;33721;48.852;9.936;2022-09-24T05:03:06;9.10;99.90
47961;DHT22;33721;48.852;9.936;2022-09-24T05:05:32;9.20;99.90
47961;DHT22;33721;48.852;9.936;2022-09-24T05:07:58;9.20;99.90
47961;DHT22;33721;48.852;9.936;2022-09-24T05:10:26;9.10;99.90
47961;DHT22;33721;48.852;9.936;2022-09-24T05:12:52;9.00;99.90
47961;DHT22;33721;48.852;9.936;2022-09-24T05:15:18;9.00;99.90
47961;DHT22;33721;48.852;9.936;2022-09-24T05:17:44;9.00;99.90
47961;DHT22;33721;48.852;9.936;2022-09-24T05:20:10;9.10;99.90
47961;DHT22;33721;48.852;9.936;2022-09-24T05:22:40;9.10;99.90
47961;DHT22;33721;48.852;9.936;2022-09-24T05:25:06;9.10;99.90
47961;DHT22;33721;48.852;9.936;2022-09-24T05:27:32;9.10;99.90
47961;DHT22;33721;48.852;9.936;2022-09-24T05:29:57;9.10;99.90
47961;DHT22;33721;48.852;9.936;2022-09-24T05:32:25;9.10;99.90
47961;DHT22;33721;48.852;9.936;2022-09-24T05:34:50;9.20;99.90
47961;DHT22;33721;48.852;9.936;2022-09-24T05:37:18;9.20;99.90
47961;DHT22;33721;48.852;9.936;2022-09-24T05:39:44;9.20;99.90
47961;DHT22;33721;48.852;9.936;2022-09-24T05:42:10;9.30;99.90
47961;DHT22;33721;48.852;9.936;2022-09-24T05:52:51;9.30;99.90
47961;DHT22;33721;48.852;9.936;2022-09-24T05:55:17;9.30;99.90
47961;DHT22;33721;48.852;9.936;2022-09-24T05:57:42;9.40;99.90
47961;DHT22;33721;48.852;9.936;2022-09-24T06:00:08;9.40;99.90
47961;DHT22;33721;48.852;9.936;2022-09-24T06:02:34;9.40;99.90
47961;DHT22;33721;48.852;9.936;2022-09-24T06:05:00;9.30;99.90
47961;DHT22;33721;48.852;9.936;2022-09-24T06:07:25;9.30;99.90
47961;DHT22;33721;48.852;9.936;2022-09-24T06:09:51;9.40;99.90
47961;DHT22;33721;48.852;9.936;2022-09-24T06:12:17;9.40;99.90
47961;DHT22;33721;48.852;9.936;2022-09-24T06:14:42;9.40;99.90
47961;DHT22;33721;48.852;9.936;2022-09-24T06:17:09;9.40;99.90
47961;DHT22;33721;48.852;9.936;2022-09-24T06:19:34;9.40;99.90
47961;DHT22;33721;48.852;9.936;2022-09-24T06:22:00;9.50;99.90
47961;DHT22;33721;48.852;9.936;2022-09-24T06:24:26;9.50;99.90
47961;DHT22;33721;48.852;9.936;2022-09-24T06:26:52;9.60;99.90
47961;DHT22;33721;48.852;9.936;2022-09-24T06:29:17;9.70;99.90
47961;DHT22;33721;48.852;9.936;2022-09-24T06:31:44;9.80;99.90
47961;DHT22;33721;48.852;9.936;2022-09-24T06:34:10;9.80;99.90
47961;DHT22;33721;48.852;9.936;2022-09-24T06:36:36;9.90;99.90
47961;DHT22;33721;48.852;9.936;2022-09-24T06:39:01;10.00;99.90
47961;DHT22;33721;48.852;9.936;2022-09-24T06:41:27;10.10;99.90
47961;DHT22;33721;48.852;9.936;2022-09-24T06:43:53;10.20;99.90
47961;DHT22;33721;48.852;9.936;2022-09-24T06:46:19;10.20;99.90
47961;DHT22;33721;48.852;9.936;2022-09-24T06:48:47;10.20;99.90
47961;DHT22;33721;48.852;9.936;2022-09-24T06:51:13;10.20;99.90
47961;DHT22;33721;48.852;9.936;2022-09-24T06:53:39;10.20;99.90
47961;DHT22;33721;48.852;9.936;2022-09-24T06:56:05;10.20;99.90
47961;DHT22;33721;48.852;9.936;2022-09-24T06:58:31;10.20;99.90
47961;DHT22;33721;48.852;9.936;2022-09-24T07:00:59;10.40;99.90
47961;DHT22;33721;48.852;9.936;2022-09-24T07:03:28;10.50;99.90
47961;DHT22;33721;48.852;9.936;2022-09-24T07:05:54;10.50;99.90
47961;DHT22;33721;48.852;9.936;2022-09-24T07:08:20;10.50;99.90
47961;DHT22;33721;48.852;9.936;2022-09-24T07:10:47;10.40;99.90
47961;DHT22;33721;48.852;9.936;2022-09-24T07:13:14;10.50;99.90
47961;DHT22;33721;48.852;9.936;2022-09-24T07:15:40;10.70;99.90
47961;DHT22;33721;48.852;9.936;2022-09-24T07:18:07;10.80;99.90
47961;DHT22;33721;48.852;9.936;2022-09-24T07:20:33;11.10;99.90
47961;DHT22;33721;48.852;9.936;2022-09-24T07:23:04;11.20;99.90
47961;DHT22;33721;48.852;9.936;2022-09-24T07:25:30;11.40;99.90
47961;DHT22;33721;48.852;9.936;2022-09-24T07:28:03;11.50;99.90
47961;DHT22;33721;48.852;9.936;2022-09-24T07:30:29;11.60;99.90
47961;DHT22;33721;48.852;9.936;2022-09-24T07:32:55;11.60;99.90
47961;DHT22;33721;48.852;9.936;2022-09-24T07:35:21;11.50;99.90
47961;DHT22;33721;48.852;9.936;2022-09-24T07:37:47;11.60;99.90
47961;DHT22;33721;48.852;9.936;2022-09-24T07:40:13;11.60;99.90
47961;DHT22;33721;48.852;9.936;2022-09-24T07:42:46;11.70;99.90
47961;DHT22;33721;48.852;9.936;2022-09-24T07:45:12;11.70;99.90
47961;DHT22;33721;48.852;9.936;2022-09-24T07:47:37;11.80;99.90
47961;DHT22;33721;48.852;9.936;2022-09-24T07:50:04;11.90;99.90
47961;DHT22;33721;48.852;9.936;2022-09-24T07:52:30;12.00;99.90
47961;DHT22;33721;48.852;9.936;2022-09-24T07:54:55;12.00;99.90
47961;DHT22;33721;48.852;9.936;2022-09-24T07:57:21;12.00;99.90
47961;DHT22;33721;48.852;9.936;2022-09-24T07:59:46;12.10;99.90
47961;DHT22;33721;48.852;9.936;2022-09-24T08:02:16;12.10;99.90
47961;DHT22;33721;48.852;9.936;2022-09-24T08:04:43;12.20;99.90
47961;DHT22;33721;48.852;9.936;2022-09-24T08:07:10;12.30;99.90
47961;DHT22;33721;48.852;9.936;2022-09-24T08:09:36;12.30;99.90
47961;DHT22;33721;48.852;9.936;2022-09-24T08:12:02;12.40;99.90
47961;DHT22;33721;48.852;9.936;2022-09-24T08:14:27;12.40;99.90
47961;DHT22;33721;48.852;9.936;2022-09-24T08:16:53;12.40;99.90
47961;DHT22;33721;48.852;9.936;2022-09-24T08:19:19;12.50;99.90
47961;DHT22;33721;48.852;9.936;2022-09-24T08:21:44;12.50;99.90
47961;DHT22;33721;48.852;9.936;2022-09-24T08:24:13;12.60;99.90
47961;DHT22;33721;48.852;9.936;2022-09-24T08:26:40;12.70;99.90
47961;DHT22;33721;48.852;9.936;2022-09-24T08:29:05;12.70;99.90
47961;DHT22;33721;48.852;9.936;2022-09-24T08:31:31;12.80;99.90
47961;DHT22;33721;48.852;9.936;2022-09-24T08:33:59;12.90;99.90
47961;DHT22;33721;48.852;9.936;2022-09-24T08:36:25;12.90;99.90
47961;DHT22;33721;48.852;9.936;2022-09-24T08:38:55;13.00;99.90
47961;DHT22;33721;48.852;9.936;2022-09-24T08:41:34;13.00;99.90
47961;DHT22;33721;48.852;9.936;2022-09-24T08:44:16;12.90;99.90
47961;DHT22;33721;48.852;9.936;2022-09-24T08:47:19;12.90;99.90
47961;DHT22;33721;48.852;9.936;2022-09-24T08:53:28;13.00;99.90
47961;DHT22;33721;48.852;9.936;2022-09-24T08:55:58;13.10;99.90
47961;DHT22;33721;48.852;9.936;2022-09-24T09:04:27;13.10;99.90
47961;DHT22;33721;48.852;9.936;2022-09-24T09:07:13;13.10;99.90
47961;DHT22;33721;48.852;9.936;2022-09-24T09:10:03;13.20;99.90
47961;DHT22;33721;48.852;9.936;2022-09-24T09:12:38;13.30;99.90
47961;DHT22;33721;48.852;9.936;2022-09-24T09:15:20;13.30;99.90
47961;DHT22;33721;48.852;9.936;2022-09-24T09:17:53;13.40;99.90
47961;DHT22;33721;48.852;9.936;2022-09-24T09:20:27;13.40;99.90
47961;DHT22;33721;48.852;9.936;2022-09-24T09:22:55;13.60;99.90
47961;DHT22;33721;48.852;9.936;2022-09-24T09:25:26;13.60;99.90
47961;DHT22;33721;48.852;9.936;2022-09-24T09:28:10;13.60;99.90
47961;DHT22;33721;48.852;9.936;2022-09-24T09:33:43;13.70;99.90
47961;DHT22;33721;48.852;9.936;2022-09-24T09:36:28;13.80;99.90
47961;DHT22;33721;48.852;9.936;2022-09-24T09:39:47;13.80;99.90
47961;DHT22;33721;48.852;9.936;2022-09-24T09:42:33;13.90;99.90
47961;DHT22;33721;48.852;9.936;2022-09-24T09:45:28;14.00;99.90
47961;DHT22;33721;48.852;9.936;2022-09-24T09:47:57;14.10;99.90
47961;DHT22;33721;48.852;9.936;2022-09-24T09:50:40;14.10;99.90
47961;DHT22;33721;48.852;9.936;2022-09-24T09:53:23;14.10;99.90
47961;DHT22;33721;48.852;9.936;2022-09-24T09:55:54;14.20;99.90
47961;DHT22;33721;48.852;9.936;2022-09-24T09:58:26;14.40;99.90
47961;DHT22;33721;48.852;9.936;2022-09-24T10:01:08;14.40;99.90
47961;DHT22;33721;48.852;9.936;2022-09-24T10:06:11;14.40;99.90
47961;DHT22;33721;48.852;9.936;2022-09-24T10:08:38;14.40;99.90
47961;DHT22;33721;48.852;9.936;2022-09-24T10:11:05;14.50;99.90
47961;DHT22;33721;48.852;9.936;2022-09-24T10:13:32;14.60;99.90
47961;DHT22;33721;48.852;9.936;2022-09-24T10:16:02;14.70;99.90
47961;DHT22;33721;48.852;9.936;2022-09-24T10:18:42;14.80;99.90
47961;DHT22;33721;48.852;9.936;2022-09-24T10:21:11;14.80;99.90
47961;DHT22;33721;48.852;9.936;2022-09-24T10:23:42;14.90;99.90
47961;DHT22;33721;48.852;9.936;2022-09-24T10:26:09;14.90;99.90
47961;DHT22;33721;48.852;9.936;2022-09-24T10:28:46;15.00;99.90
47961;DHT22;33721;48.852;9.936;2022-09-24T10:31:33;15.10;99.90
47961;DHT22;33721;48.852;9.936;2022-09-24T10:34:00;15.10;99.90
47961;DHT22;33721;48.852;9.936;2022-09-24T10:36:30;15.10;99.90
47961;DHT22;33721;48.852;9.936;2022-09-24T10:41:29;15.10;99.90
47961;DHT22;33721;48.852;9.936;2022-09-24T10:43:58;15.20;99.90
47961;DHT22;33721;48.852;9.936;2022-09-24T10:47:06;15.10;99.90
47961;DHT22;33721;48.852;9.936;2022-09-24T10:54:56;15.10;99.90
47961;DHT22;33721;48.852;9.936;2022-09-24T10:57:41;15.10;99.90
47961;DHT22;33721;48.852;9.936;2022-09-24T11:00:39;15.10;99.90
47961;DHT22;33721;48.852;9.936;2022-09-24T11:05:36;15.30;99.90
47961;DHT22;33721;48.852;9.936;2022-09-24T11:19:19;15.30;99.90
47961;DHT22;33721;48.852;9.936;2022-09-24T11:22:10;15.30;99.90
47961;DHT22;33721;48.852;9.936;2022-09-24T11:30:18;15.30;99.90
47961;DHT22;33721;48.852;9.936;2022-09-24T11:47:12;15.40;99.90
47961;DHT22;33721;48.852;9.936;2022-09-24T11:52:23;15.50;99.90
47961;DHT22;33721;48.852;9.936;2022-09-24T11:58:15;15.60;99.90
47961;DHT22;33721;48.852;9.936;2022-09-24T12:06:08;16.00;99.90
47961;DHT22;33721;48.852;9.936;2022-09-24T12:11:13;16.10;99.90
47961;DHT22;33721;48.852;9.936;2022-09-24T12:13:53;16.10;99.90
47961;DHT22;33721;48.852;9.936;2022-09-24T12:16:34;16.10;99.90
47961;DHT22;33721;48.852;9.936;2022-09-24T12:21:33;15.70;99.90
47961;DHT22;33721;48.852;9.936;2022-09-24T12:26:53;15.70;99.90
47961;DHT22;33721;48.852;9.936;2022-09-24T12:29:45;15.60;99.90
47961;DHT22;33721;48.852;9.936;2022-09-24T12:38:16;15.30;99.90
47961;DHT22;33721;48.852;9.936;2022-09-24T12:43:41;15.20;99.90
47961;DHT22;33721;48.852;9.936;2022-09-24T12:46:22;15.20;99.90
47961;DHT22;33721;48.852;9.936;2022-09-24T12:48:49;15.30;99.90
47961;DHT22;33721;48.852;9.936;2022-09-24T12:51:17;15.30;99.90
47961;DHT22;33721;48.852;9.936;2022-09-24T12:54:07;15.20;99.90
47961;DHT22;33721;48.852;9.936;2022-09-24T12:56:33;15.10;99.90
47961;DHT22;33721;48.852;9.936;2022-09-24T12:59:02;15.10;99.90
47961;DHT22;33721;48.852;9.936;2022-09-24T13:01:30;15.10;99.90
47961;DHT22;33721;48.852;9.936;2022-09-24T13:06:46;15.00;99.90
47961;DHT22;33721;48.852;9.936;2022-09-24T13:09:36;14.90;99.90
47961;DHT22;33721;48.852;9.936;2022-09-24T13:15:05;14.90;99.90
47961;DHT22;33721;48.852;9.936;2022-09-24T13:17:33;14.90;99.90
47961;DHT22;33721;48.852;9.936;2022-09-24T13:20:06;14.90;99.90
47961;DHT22;33721;48.852;9.936;2022-09-24T13:22:35;14.90;99.90
47961;DHT22;33721;48.852;9.936;2022-09-24T13:27:38;14.90;99.90
47961;DHT22;33721;48.852;9.936;2022-09-24T13:35:31;14.70;99.90
47961;DHT22;33721;48.852;9.936;2022-09-24T13:38:22;14.80;99.90
47961;DHT22;33721;48.852;9.936;2022-09-24T13:40:50;14.70;99.90
47961;DHT22;33721;48.852;9.936;2022-09-24T13:43:37;14.60;99.90
47961;DHT22;33721;48.852;9.936;2022-09-24T13:46:12;14.60;99.90
47961;DHT22;33721;48.852;9.936;2022-09-24T13:51:15;14.60;99.90
47961;DHT22;33721;48.852;9.936;2022-09-24T13:53:50;14.60;99.90
47961;DHT22;33721;48.852;9.936;2022-09-24T13:56:18;14.60;99.90
47961;DHT22;33721;48.852;9.936;2022-09-24T13:58:44;14.60;99.90
47961;DHT22;33721;48.852;9.936;2022-09-24T14:01:18;14.60;99.90
47961;DHT22;33721;48.852;9.936;2022-09-24T14:03:56;14.60;99.90
47961;DHT22;33721;48.852;9.936;2022-09-24T14:06:35;14.70;99.90
47961;DHT22;33721;48.852;9.936;2022-09-24T14:09:02;14.70;99.90
47961;DHT22;33721;48.852;9.936;2022-09-24T14:11:27;14.70;99.90
47961;DHT22;33721;48.852;9.936;2022-09-24T14:13:53;14.70;99.90
47961;DHT22;33721;48.852;9.936;2022-09-24T14:16:24;14.70;99.90
47961;DHT22;33721;48.852;9.936;2022-09-24T14:19:04;14.70;99.90
47961;DHT22;33721;48.852;9.936;2022-09-24T14:21:43;14.60;99.90
47961;DHT22;33721;48.852;9.936;2022-09-24T14:24:27;14.60;99.90
47961;DHT22;33721;48.852;9.936;2022-09-24T14:26:55;14.70;99.90
47961;DHT22;33721;48.852;9.936;2022-09-24T14:29:37;14.70;99.90
47961;DHT22;33721;48.852;9.936;2022-09-24T14:32:03;14.70;99.90
47961;DHT22;33721;48.852;9.936;2022-09-24T14:34:35;14.80;99.90
47961;DHT22;33721;48.852;9.936;2022-09-24T14:37:37;14.80;99.90
47961;DHT22;33721;48.852;9.936;2022-09-24T14:40:16;14.70;99.90
47961;DHT22;33721;48.852;9.936;2022-09-24T14:42:48;14.70;99.90
47961;DHT22;33721;48.852;9.936;2022-09-24T14:45:34;14.70;99.90
47961;DHT22;33721;48.852;9.936;2022-09-24T14:50:42;14.80;99.90
47961;DHT22;33721;48.852;9.936;2022-09-24T14:53:29;14.80;99.90
47961;DHT22;33721;48.852;9.936;2022-09-24T14:55:57;14.80;99.90
47961;DHT22;33721;48.852;9.936;2022-09-24T14:58:34;14.80;99.90
47961;DHT22;33721;48.852;9.936;2022-09-24T15:01:14;14.80;99.90
47961;DHT22;33721;48.852;9.936;2022-09-24T15:03:42;14.70;99.90
47961;DHT22;33721;48.852;9.936;2022-09-24T15:06:28;14.60;99.90
47961;DHT22;33721;48.852;9.936;2022-09-24T15:11:48;14.30;99.90
47961;DHT22;33721;48.852;9.936;2022-09-24T15:16:45;14.30;99.90
47961;DHT22;33721;48.852;9.936;2022-09-24T15:19:20;14.30;99.90
47961;DHT22;33721;48.852;9.936;2022-09-24T15:21:51;14.50;99.90
47961;DHT22;33721;48.852;9.936;2022-09-24T15:24:18;14.60;99.90
47961;DHT22;33721;48.852;9.936;2022-09-24T15:26:58;14.70;99.90
47961;DHT22;33721;48.852;9.936;2022-09-24T15:29:25;14.80;99.90
47961;DHT22;33721;48.852;9.936;2022-09-24T15:31:51;14.80;99.90
47961;DHT22;33721;48.852;9.936;2022-09-24T15:34:19;14.80;99.90
47961;DHT22;33721;48.852;9.936;2022-09-24T15:36:52;14.90;99.90
47961;DHT22;33721;48.852;9.936;2022-09-24T15:39:19;14.90;99.90
47961;DHT22;33721;48.852;9.936;2022-09-24T15:41:45;14.90;99.90
47961;DHT22;33721;48.852;9.936;2022-09-24T15:44:19;14.90;99.90
47961;DHT22;33721;48.852;9.936;2022-09-24T15:46:47;14.90;99.90
47961;DHT22;33721;48.852;9.936;2022-09-24T15:49:21;14.90;99.90
47961;DHT22;33721;48.852;9.936;2022-09-24T15:52:34;14.90;99.90
47961;DHT22;33721;48.852;9.936;2022-09-24T15:54:34;14.80;99.90
47961;DHT22;33721;48.852;9.936;2022-09-24T15:57:00;14.80;99.90
47961;DHT22;33721;48.852;9.936;2022-09-24T15:59:27;14.80;99.90
47961;DHT22;33721;48.852;9.936;2022-09-24T16:01:54;14.80;99.90
47961;DHT22;33721;48.852;9.936;2022-09-24T16:04:22;14.80;99.90
47961;DHT22;33721;48.852;9.936;2022-09-24T16:06:47;14.80;99.90
47961;DHT22;33721;48.852;9.936;2022-09-24T16:09:14;14.70;99.90
47961;DHT22;33721;48.852;9.936;2022-09-24T16:11:40;14.70;99.90
47961;DHT22;33721;48.852;9.936;2022-09-24T16:14:06;14.60;99.90
47961;DHT22;33721;48.852;9.936;2022-09-24T16:16:32;14.70;99.90
47961;DHT22;33721;48.852;9.936;2022-09-24T16:18:57;14.70;99.90
47961;DHT22;33721;48.852;9.936;2022-09-24T16:21:23;14.70;99.90
47961;DHT22;33721;48.852;9.936;2022-09-24T16:23:56;14.80;99.90
47961;DHT22;33721;48.852;9.936;2022-09-24T16:26:22;14.80;99.90
47961;DHT22;33721;48.852;9.936;2022-09-24T16:28:47;14.80;99.90
47961;DHT22;33721;48.852;9.936;2022-09-24T16:31:16;14.80;99.90
47961;DHT22;33721;48.852;9.936;2022-09-24T16:33:42;14.80;99.90
47961;DHT22;33721;48.852;9.936;2022-09-24T16:36:08;14.80;99.90
47961;DHT22;33721;48.852;9.936;2022-09-24T16:38:35;14.80;99.90
47961;DHT22;33721;48.852;9.936;2022-09-24T16:41:02;14.80;99.90
47961;DHT22;33721;48.852;9.936;2022-09-24T16:43:27;14.70;99.90
47961;DHT22;33721;48.852;9.936;2022-09-24T16:45:59;14.70;99.90
47961;DHT22;33721;48.852;9.936;2022-09-24T16:48:25;14.70;99.90
47961;DHT22;33721;48.852;9.936;2022-09-24T16:50:51;14.60;99.90
47961;DHT22;33721;48.852;9.936;2022-09-24T16:53:16;14.60;99.90
47961;DHT22;33721;48.852;9.936;2022-09-24T16:55:42;14.60;99.90
47961;DHT22;33721;48.852;9.936;2022-09-24T16:58:07;14.60;99.90
47961;DHT22;33721;48.852;9.936;2022-09-24T17:00:34;14.60;99.90
47961;DHT22;33721;48.852;9.936;2022-09-24T17:02:59;14.50;99.90
47961;DHT22;33721;48.852;9.936;2022-09-24T17:05:25;14.50;99.90
47961;DHT22;33721;48.852;9.936;2022-09-24T17:07:50;14.50;99.90
47961;DHT22;33721;48.852;9.936;2022-09-24T17:10:16;14.50;99.90
47961;DHT22;33721;48.852;9.936;2022-09-24T17:12:45;14.40;99.90
47961;DHT22;33721;48.852;9.936;2022-09-24T17:15:12;14.40;99.90
47961;DHT22;33721;48.852;9.936;2022-09-24T17:17:42;14.30;99.90
47961;DHT22;33721;48.852;9.936;2022-09-24T17:20:09;14.20;99.90
47961;DHT22;33721;48.852;9.936;2022-09-24T17:22:35;14.20;99.90
47961;DHT22;33721;48.852;9.936;2022-09-24T17:25:02;14.20;99.90
47961;DHT22;33721;48.852;9.936;2022-09-24T17:27:28;14.20;99.90
47961;DHT22;33721;48.852;9.936;2022-09-24T17:29:53;14.20;99.90
47961;DHT22;33721;48.852;9.936;2022-09-24T17:32:19;14.20;99.90
47961;DHT22;33721;48.852;9.936;2022-09-24T17:34:45;14.20;99.90
47961;DHT22;33721;48.852;9.936;2022-09-24T17:37:10;14.20;99.90
47961;DHT22;33721;48.852;9.936;2022-09-24T17:39:36;14.10;99.90
47961;DHT22;33721;48.852;9.936;2022-09-24T17:42:01;14.10;99.90
47961;DHT22;33721;48.852;9.936;2022-09-24T17:44:27;14.10;99.90
47961;DHT22;33721;48.852;9.936;2022-09-24T17:46:53;14.10;99.90
47961;DHT22;33721;48.852;9.936;2022-09-24T17:49:19;14.00;99.90
47961;DHT22;33721;48.852;9.936;2022-09-24T17:51:44;14.00;99.90
47961;DHT22;33721;48.852;9.936;2022-09-24T17:54:14;13.90;99.90
47961;DHT22;33721;48.852;9.936;2022-09-24T17:56:41;13.90;99.90
47961;DHT22;33721;48.852;9.936;2022-09-24T17:59:10;13.90;99.90
47961;DHT22;33721;48.852;9.936;2022-09-24T18:01:37;13.90;99.90